createdAt,value
2019-01-09T00:02:17.063Z,7.40
2019-01-09T00:04:48.338Z,7.40
2019-01-09T00:07:18.146Z,7.40
2019-01-09T00:09:47.824Z,7.40
2019-01-09T00:12:17.479Z,7.40
2019-01-09T00:14:47.149Z,7.40
2019-01-09T00:17:16.919Z,7.40
2019-01-09T00:19:46.581Z,7.40
2019-01-09T00:22:16.247Z,7.40
2019-01-09T00:24:45.917Z,7.40
2019-01-09T00:27:15.596Z,7.40
2019-01-09T00:29:45.256Z,7.40
2019-01-09T00:32:14.961Z,7.40
2019-01-09T00:34:47.700Z,7.40
2019-01-09T00:37:19.024Z,7.40
2019-01-09T00:39:48.687Z,7.40
2019-01-09T00:42:19.741Z,7.50
2019-01-09T00:44:49.399Z,7.50
2019-01-09T00:47:19.071Z,7.50
2019-01-09T00:49:49.903Z,7.50
2019-01-09T00:52:20.652Z,7.40
2019-01-09T00:54:50.381Z,7.40
2019-01-09T00:57:21.510Z,7.40
2019-01-09T00:59:51.160Z,7.50
2019-01-09T01:02:46.023Z,7.40
2019-01-09T01:05:52.948Z,7.40
2019-01-09T01:08:59.913Z,7.40
2019-01-09T01:12:15.471Z,7.40
2019-01-09T01:15:14.397Z,7.30
2019-01-09T01:18:12.320Z,7.30
2019-01-09T01:20:55.524Z,7.20
2019-01-09T01:23:40.924Z,7.20
2019-01-09T01:26:36.199Z,7.20
2019-01-09T01:29:28.138Z,7.20
2019-01-09T01:32:22.817Z,7.20
2019-01-09T01:35:16.283Z,7.20
2019-01-09T01:38:20.087Z,7.20
2019-01-09T01:40:56.725Z,7.20
2019-01-09T01:43:57.671Z,7.20
2019-01-09T01:46:46.616Z,7.20
2019-01-09T01:49:29.701Z,7.20
2019-01-09T01:52:15.871Z,7.20
2019-01-09T01:54:55.671Z,7.20
2019-01-09T01:57:41.591Z,7.20
2019-01-09T02:00:33.138Z,7.20
2019-01-09T02:03:20.385Z,7.20
2019-01-09T02:06:04.003Z,7.30
2019-01-09T02:08:53.172Z,7.30
2019-01-09T02:11:35.930Z,7.40
2019-01-09T02:14:30.041Z,7.40
2019-01-09T02:17:36.231Z,7.50
2019-01-09T02:20:22.141Z,7.50
2019-01-09T02:23:13.858Z,7.60
2019-01-09T02:26:02.795Z,7.60
2019-01-09T02:29:08.322Z,7.70
2019-01-09T02:31:45.756Z,7.70
2019-01-09T02:34:17.443Z,7.70
2019-01-09T02:36:47.172Z,7.70
2019-01-09T02:39:19.331Z,7.60
2019-01-09T02:41:51.735Z,7.70
2019-01-09T02:44:21.386Z,7.70
2019-01-09T02:46:50.988Z,7.70
2019-01-09T02:49:21.082Z,7.70
2019-01-09T02:51:50.742Z,7.70
2019-01-09T02:54:23.195Z,7.80
2019-01-09T02:56:54.368Z,7.80
2019-01-09T02:59:24.010Z,7.90
2019-01-09T03:01:54.860Z,7.90
2019-01-09T03:04:25.963Z,7.90
2019-01-09T03:06:55.760Z,8.00
2019-01-09T03:09:25.482Z,8.00
2019-01-09T03:11:55.281Z,7.90
2019-01-09T03:14:24.928Z,7.90
2019-01-09T03:16:54.609Z,7.90
2019-01-09T03:19:24.275Z,7.90
2019-01-09T03:21:53.945Z,7.80
2019-01-09T03:24:23.616Z,7.80
2019-01-09T03:26:53.312Z,7.80
2019-01-09T03:29:22.973Z,7.70
2019-01-09T03:31:52.657Z,7.70
2019-01-09T03:34:22.297Z,7.60
2019-01-09T03:36:51.961Z,7.60
2019-01-09T03:39:21.742Z,7.50
2019-01-09T03:41:51.467Z,7.50
2019-01-09T03:44:21.146Z,7.50
2019-01-09T03:46:52.461Z,7.50
2019-01-09T03:49:22.141Z,7.50
2019-01-09T03:51:51.795Z,7.40
2019-01-09T03:54:21.463Z,7.40
2019-01-09T03:56:51.125Z,7.40
2019-01-09T03:59:20.784Z,7.40
2019-01-09T04:01:50.451Z,7.40
2019-01-09T04:04:20.242Z,7.40
2019-01-09T04:06:49.900Z,7.30
2019-01-09T04:09:19.595Z,7.30
2019-01-09T04:11:49.250Z,7.20
2019-01-09T04:14:18.916Z,7.20
2019-01-09T04:16:48.538Z,7.20
2019-01-09T04:19:18.131Z,7.10
2019-01-09T04:21:48.089Z,7.10
2019-01-09T04:24:17.763Z,7.10
2019-01-09T04:26:47.346Z,7.00
2019-01-09T04:29:17.010Z,7.00
2019-01-09T04:31:46.667Z,7.00
2019-01-09T04:34:16.347Z,6.90
2019-01-09T04:36:51.871Z,6.90
2019-01-09T04:39:18.693Z,6.90
2019-01-09T04:41:48.362Z,6.90
2019-01-09T04:44:18.027Z,6.90
2019-01-09T04:46:47.898Z,6.90
2019-01-09T04:49:17.563Z,7.00
2019-01-09T04:51:47.234Z,7.00
2019-01-09T04:54:16.914Z,7.00
2019-01-09T04:56:46.564Z,7.00
2019-01-09T04:59:16.586Z,7.00
2019-01-09T05:01:46.276Z,7.00
2019-01-09T05:04:15.951Z,6.90
2019-01-09T05:06:45.593Z,6.90
2019-01-09T05:09:15.286Z,6.90
2019-01-09T05:11:44.956Z,6.90
2019-01-09T05:14:14.656Z,6.80
2019-01-09T05:16:44.418Z,6.80
2019-01-09T05:19:14.079Z,6.80
2019-01-09T05:21:43.736Z,6.80
2019-01-09T05:24:13.418Z,6.80
2019-01-09T05:26:43.077Z,6.80
2019-01-09T05:29:12.738Z,6.80
2019-01-09T05:31:42.371Z,6.80
2019-01-09T05:34:12.033Z,6.80
2019-01-09T05:36:41.703Z,6.70
2019-01-09T05:39:11.513Z,6.70
2019-01-09T05:41:41.102Z,6.70
2019-01-09T05:44:10.755Z,6.70
2019-01-09T05:46:40.443Z,6.70
2019-01-09T05:49:10.092Z,6.70
2019-01-09T05:51:39.784Z,6.60
2019-01-09T05:54:09.455Z,6.60
2019-01-09T05:56:39.128Z,6.60
2019-01-09T05:59:10.426Z,6.50
2019-01-09T06:01:40.519Z,6.50
2019-01-09T06:04:10.189Z,6.50
2019-01-09T06:06:39.838Z,6.50
2019-01-09T06:09:09.554Z,6.50
2019-01-09T06:11:39.221Z,6.50
2019-01-09T06:14:10.170Z,6.40
2019-01-09T06:16:40.030Z,6.40
2019-01-09T06:19:09.692Z,6.40
2019-01-09T06:21:39.254Z,6.40
2019-01-09T06:24:08.941Z,6.40
2019-01-09T06:26:38.689Z,6.40
2019-01-09T06:29:09.159Z,6.40
2019-01-09T06:31:38.836Z,6.30
2019-01-09T06:34:08.508Z,6.30
2019-01-09T06:36:38.448Z,6.30
2019-01-09T06:39:08.401Z,6.30
2019-01-09T06:41:38.054Z,6.30
2019-01-09T06:44:07.713Z,6.20
2019-01-09T06:46:37.411Z,6.20
2019-01-09T06:49:08.097Z,6.20
2019-01-09T06:51:38.071Z,6.20
2019-01-09T06:54:07.734Z,6.10
2019-01-09T06:56:37.396Z,6.10
2019-01-09T06:59:07.058Z,6.10
2019-01-09T07:01:36.751Z,6.00
2019-01-09T07:04:06.399Z,6.00
2019-01-09T07:06:37.547Z,6.00
2019-01-09T07:09:07.320Z,6.00
2019-01-09T07:11:36.984Z,5.90
2019-01-09T07:14:06.663Z,5.90
2019-01-09T07:16:36.342Z,5.90
2019-01-09T07:19:06.693Z,5.90
2019-01-09T07:21:45.239Z,5.90
2019-01-09T07:24:08.004Z,5.90
2019-01-09T07:26:37.658Z,5.90
2019-01-09T07:29:07.325Z,5.90
2019-01-09T07:31:37.412Z,5.90
2019-01-09T07:34:07.282Z,5.90
2019-01-09T07:36:36.935Z,5.90
2019-01-09T07:39:07.758Z,5.90
2019-01-09T07:41:37.425Z,5.90
2019-01-09T07:44:07.670Z,5.90
2019-01-09T07:46:37.364Z,5.90
2019-01-09T07:49:08.776Z,5.90
2019-01-09T07:51:38.440Z,5.90
2019-01-09T07:54:12.384Z,6.00
2019-01-09T07:56:42.034Z,6.10
2019-01-09T07:59:13.680Z,6.20
2019-01-09T08:01:43.605Z,6.20
2019-01-09T08:04:13.255Z,6.30
2019-01-09T08:06:42.903Z,6.30
2019-01-09T08:09:12.589Z,6.40
2019-01-09T08:11:42.261Z,6.40
2019-01-09T08:14:11.932Z,6.40
2019-01-09T08:16:41.623Z,6.40
2019-01-09T08:19:11.291Z,6.30
2019-01-09T08:21:41.421Z,6.40
2019-01-09T08:24:11.111Z,6.40
2019-01-09T08:26:40.771Z,6.40
2019-01-09T08:29:12.073Z,6.40
2019-01-09T08:31:41.696Z,6.40
2019-01-09T08:34:11.346Z,6.40
2019-01-09T08:36:40.999Z,6.40
2019-01-09T08:39:10.692Z,6.40
2019-01-09T08:41:40.887Z,6.50
2019-01-09T08:44:10.537Z,6.50
2019-01-09T08:46:40.221Z,6.50
2019-01-09T08:49:09.881Z,6.50
2019-01-09T08:51:39.460Z,6.60
2019-01-09T08:54:09.152Z,6.70
2019-01-09T08:56:38.802Z,6.70
2019-01-09T08:59:08.522Z,6.70
2019-01-09T09:01:39.846Z,6.80
2019-01-09T09:04:09.510Z,6.80
2019-01-09T09:06:39.174Z,6.90
2019-01-09T09:09:09.166Z,6.90
2019-01-09T09:11:38.836Z,7.00
2019-01-09T09:14:08.500Z,7.00
2019-01-09T09:16:40.815Z,7.00
2019-01-09T09:19:10.475Z,7.00
2019-01-09T09:21:40.413Z,7.00
2019-01-09T09:24:10.120Z,7.10
2019-01-09T09:26:39.767Z,7.20
2019-01-09T09:29:09.416Z,7.20
2019-01-09T09:31:39.091Z,7.30
2019-01-09T09:34:09.688Z,7.30
2019-01-09T09:36:40.487Z,7.40
2019-01-09T09:39:10.956Z,7.40
2019-01-09T09:41:40.634Z,7.50
2019-01-09T09:44:11.764Z,7.50
2019-01-09T09:46:41.374Z,7.60
2019-01-09T09:49:11.024Z,7.60
2019-01-09T09:51:40.694Z,7.60
2019-01-09T09:54:10.385Z,7.70
2019-01-09T09:56:40.865Z,7.70
2019-01-09T09:59:11.576Z,7.70
2019-01-09T10:01:42.836Z,7.70
2019-01-09T10:04:12.521Z,7.80
2019-01-09T10:06:42.174Z,7.80
2019-01-09T10:09:11.871Z,7.70
2019-01-09T10:11:41.591Z,7.70
2019-01-09T10:14:11.325Z,7.80
2019-01-09T10:16:41.028Z,7.80
2019-01-09T10:19:10.685Z,7.90
2019-01-09T10:21:40.344Z,7.90
2019-01-09T10:24:10.104Z,7.90
2019-01-09T10:26:39.753Z,8.00
2019-01-09T10:29:09.421Z,8.00
2019-01-09T10:31:39.094Z,8.00
2019-01-09T10:34:08.755Z,8.00
2019-01-09T10:36:38.418Z,8.00
2019-01-09T10:39:09.924Z,8.00
2019-01-09T10:41:39.578Z,7.90
2019-01-09T10:44:09.250Z,7.80
2019-01-09T10:46:38.924Z,7.70
2019-01-09T10:49:08.593Z,7.70
2019-01-09T10:51:38.242Z,7.70
2019-01-09T10:54:07.930Z,7.70
2019-01-09T10:56:37.592Z,7.70
2019-01-09T10:59:07.248Z,7.70
2019-01-09T11:01:36.923Z,7.70
2019-01-09T11:04:06.639Z,7.70
2019-01-09T11:06:36.288Z,7.80
2019-01-09T11:09:09.903Z,7.80
2019-01-09T11:11:39.555Z,7.80
2019-01-09T11:14:10.164Z,7.80
2019-01-09T11:16:39.852Z,7.80
2019-01-09T11:19:09.505Z,7.90
2019-01-09T11:21:39.184Z,7.90
2019-01-09T11:24:08.870Z,7.90
2019-01-09T11:26:38.516Z,8.00
2019-01-09T11:29:08.219Z,8.00
2019-01-09T11:31:37.895Z,8.00
2019-01-09T11:34:08.848Z,8.10
2019-01-09T11:36:38.505Z,8.10
2019-01-09T11:39:11.398Z,8.20
2019-01-09T11:41:41.068Z,8.30
2019-01-09T11:44:10.722Z,8.30
2019-01-09T11:46:40.398Z,8.30
2019-01-09T11:49:10.078Z,8.30
2019-01-09T11:51:41.196Z,8.40
2019-01-09T11:54:10.923Z,8.50
2019-01-09T11:56:40.592Z,8.50
2019-01-09T11:59:10.246Z,8.50
2019-01-09T12:01:39.940Z,8.50
2019-01-09T12:04:09.619Z,8.50
2019-01-09T12:06:39.288Z,8.50
2019-01-09T12:09:10.189Z,8.50
2019-01-09T12:11:39.856Z,8.50
2019-01-09T12:14:09.519Z,8.50
2019-01-09T12:16:39.218Z,8.50
2019-01-09T12:19:08.864Z,8.50
2019-01-09T12:21:38.510Z,8.50
2019-01-09T12:24:09.096Z,8.60
2019-01-09T12:26:39.543Z,8.60
2019-01-09T12:29:09.693Z,8.70
2019-01-09T12:31:39.404Z,8.80
2019-01-09T12:34:09.081Z,8.80
2019-01-09T12:36:38.746Z,8.90
2019-01-09T12:39:13.270Z,9.00
2019-01-09T12:41:40.432Z,9.10
2019-01-09T12:44:10.193Z,9.10
2019-01-09T12:46:39.918Z,9.10
2019-01-09T12:49:09.593Z,9.10
2019-01-09T12:51:40.505Z,9.10
2019-01-09T12:54:10.206Z,9.10
2019-01-09T12:56:39.841Z,9.10
2019-01-09T12:59:09.493Z,9.10
2019-01-09T13:01:39.187Z,9.10
2019-01-09T13:04:08.839Z,9.10
2019-01-09T13:06:38.506Z,9.10
2019-01-09T13:09:10.001Z,9.10
2019-01-09T13:11:39.652Z,9.10
2019-01-09T13:14:09.305Z,9.10
2019-01-09T13:16:47.472Z,9.20
2019-01-09T13:19:10.365Z,9.20
2019-01-09T13:21:40.026Z,9.20
2019-01-09T13:24:09.707Z,9.20
2019-01-09T13:26:39.364Z,9.20
2019-01-09T13:29:09.023Z,9.20
2019-01-09T13:31:38.692Z,9.20
2019-01-09T13:34:08.352Z,9.30
2019-01-09T13:36:38.024Z,9.30
2019-01-09T13:39:09.292Z,9.30
2019-01-09T13:41:38.952Z,9.30
2019-01-09T13:44:08.619Z,9.30
2019-01-09T13:46:38.307Z,9.30
2019-01-09T13:49:07.973Z,9.30
2019-01-09T13:51:37.622Z,9.30
2019-01-09T13:54:07.309Z,9.30
2019-01-09T13:56:36.957Z,9.30
2019-01-09T13:59:06.619Z,9.30
2019-01-09T14:01:36.296Z,9.30
2019-01-09T14:04:06.978Z,9.30
2019-01-09T14:06:37.817Z,9.30
2019-01-09T14:09:08.711Z,9.30
2019-01-09T14:11:38.358Z,9.30
2019-01-09T14:14:09.381Z,9.30
2019-01-09T14:16:39.042Z,9.30
2019-01-09T14:19:08.656Z,9.30
2019-01-09T14:21:38.318Z,9.20
2019-01-09T14:24:08.010Z,9.20
2019-01-09T14:26:37.671Z,9.10
2019-01-09T14:29:07.329Z,9.00
2019-01-09T14:31:37.004Z,9.00
2019-01-09T14:34:06.659Z,9.00
2019-01-09T14:36:36.346Z,9.00
2019-01-09T14:39:08.195Z,9.00
2019-01-09T14:41:37.880Z,9.10
2019-01-09T14:44:07.770Z,9.10
2019-01-09T14:46:37.454Z,9.10
2019-01-09T14:49:07.117Z,9.10
2019-01-09T14:51:43.025Z,9.10
2019-01-09T14:54:08.206Z,9.00
2019-01-09T14:56:37.859Z,8.90
2019-01-09T14:59:07.509Z,8.90
2019-01-09T15:01:37.197Z,8.90
2019-01-09T15:04:08.899Z,8.90
2019-01-09T15:06:38.772Z,8.90
2019-01-09T15:09:09.297Z,8.90
2019-01-09T15:11:38.960Z,8.80
2019-01-09T15:14:08.925Z,8.80
2019-01-09T15:16:38.683Z,8.80
2019-01-09T15:19:08.364Z,8.70
2019-01-09T15:21:38.036Z,8.70
2019-01-09T15:24:08.614Z,8.60
2019-01-09T15:26:38.594Z,8.60
2019-01-09T15:29:08.261Z,8.60
2019-01-09T15:31:39.421Z,8.60
2019-01-09T15:34:08.912Z,8.60
2019-01-09T15:36:38.767Z,8.50
2019-01-09T15:39:09.594Z,8.50
2019-01-09T15:41:39.236Z,8.50
2019-01-09T15:44:08.902Z,8.50
2019-01-09T15:46:38.613Z,8.50
2019-01-09T15:49:08.273Z,8.40
2019-01-09T15:51:37.927Z,8.50
2019-01-09T15:54:07.908Z,8.50
2019-01-09T15:56:37.577Z,8.50
2019-01-09T15:59:08.853Z,8.40
2019-01-09T16:01:38.639Z,8.40
2019-01-09T16:04:08.431Z,8.30
2019-01-09T16:06:38.100Z,8.20
2019-01-09T16:09:09.105Z,8.10
2019-01-09T16:11:40.298Z,8.00
2019-01-09T16:14:09.953Z,7.90
2019-01-09T16:16:39.821Z,7.90
2019-01-09T16:19:09.488Z,7.90
2019-01-09T16:21:41.823Z,7.90
2019-01-09T16:24:12.697Z,7.90
2019-01-09T16:26:42.452Z,7.90
2019-01-09T16:29:12.106Z,7.90
2019-01-09T16:31:43.264Z,7.90
2019-01-09T16:34:12.934Z,7.80
2019-01-09T16:36:42.593Z,7.80
2019-01-09T16:39:12.568Z,7.70
2019-01-09T16:41:42.241Z,7.70
2019-01-09T16:44:11.903Z,7.60
2019-01-09T16:46:41.856Z,7.60
2019-01-09T16:49:11.542Z,7.50
2019-01-09T16:51:41.254Z,7.50
2019-01-09T16:54:10.964Z,7.50
2019-01-09T16:56:40.616Z,7.40
2019-01-09T16:59:10.535Z,7.40
2019-01-09T17:01:40.227Z,7.30
2019-01-09T17:04:10.202Z,7.30
2019-01-09T17:06:39.845Z,7.10
2019-01-09T17:09:10.030Z,7.30
2019-01-09T17:11:40.000Z,7.20
2019-01-09T17:14:09.662Z,7.20
2019-01-09T17:16:39.351Z,7.20
2019-01-09T17:19:09.494Z,7.20
2019-01-09T17:21:39.159Z,7.10
2019-01-09T17:24:08.847Z,7.10
2019-01-09T17:26:40.854Z,7.10
2019-01-09T17:29:11.870Z,7.10
2019-01-09T17:31:42.993Z,7.00
2019-01-09T17:34:12.649Z,7.00
2019-01-09T17:36:42.348Z,7.00
2019-01-09T17:39:12.028Z,6.90
2019-01-09T17:41:42.258Z,6.90
2019-01-09T17:44:11.940Z,6.90
2019-01-09T17:46:41.602Z,6.80
2019-01-09T17:49:11.336Z,6.80
2019-01-09T17:51:41.023Z,6.80
2019-01-09T17:54:10.661Z,6.70
2019-01-09T17:56:40.317Z,6.70
2019-01-09T17:59:10.007Z,6.70
2019-01-09T18:01:39.731Z,6.70
2019-01-09T18:04:09.656Z,6.70
2019-01-09T18:06:39.354Z,6.70
2019-01-09T18:09:09.975Z,6.60
2019-01-09T18:11:39.639Z,6.60
2019-01-09T18:14:09.327Z,6.60
2019-01-09T18:16:38.988Z,6.60
2019-01-09T18:19:08.652Z,6.60
2019-01-09T18:21:38.332Z,6.50
2019-01-09T18:24:07.995Z,6.50
2019-01-09T18:26:38.041Z,6.50
2019-01-09T18:29:07.730Z,6.50
2019-01-09T18:31:50.714Z,6.50
2019-01-09T18:34:20.391Z,6.50
2019-01-09T18:37:06.180Z,6.50
2019-01-09T18:40:04.673Z,6.50
2019-01-09T18:43:00.520Z,6.50
2019-01-09T18:45:40.983Z,6.50
2019-01-09T18:48:32.494Z,6.50
2019-01-09T18:51:15.423Z,6.50
2019-01-09T18:53:45.214Z,6.40
2019-01-09T18:56:15.251Z,6.50
2019-01-09T18:58:45.141Z,6.50
2019-01-09T19:01:14.812Z,6.40
2019-01-09T19:03:44.849Z,6.40
2019-01-09T19:06:14.759Z,6.40
2019-01-09T19:08:44.408Z,6.40
2019-01-09T19:11:14.881Z,6.50
2019-01-09T19:13:44.565Z,6.50
2019-01-09T19:16:14.345Z,6.40
2019-01-09T19:18:44.009Z,6.40
2019-01-09T19:21:13.982Z,6.40
2019-01-09T19:23:43.648Z,6.40
2019-01-09T19:26:13.896Z,6.40
2019-01-09T19:28:43.565Z,6.40
2019-01-09T19:31:13.245Z,6.40
2019-01-09T19:33:43.477Z,6.40
2019-01-09T19:36:13.147Z,6.40
2019-01-09T19:38:43.086Z,6.40
2019-01-09T19:41:17.315Z,6.40
2019-01-09T19:43:44.139Z,6.40
2019-01-09T19:46:13.823Z,6.40
2019-01-09T19:48:43.850Z,6.40
2019-01-09T19:51:17.824Z,6.40
2019-01-09T19:53:45.319Z,6.40
2019-01-09T19:56:15.038Z,6.40
2019-01-09T19:58:44.715Z,6.40
2019-01-09T20:01:14.461Z,6.40
2019-01-09T20:03:44.158Z,6.40
2019-01-09T20:06:13.832Z,6.40
2019-01-09T20:08:43.745Z,6.40
2019-01-09T20:11:13.706Z,6.40
2019-01-09T20:13:43.388Z,6.40
2019-01-09T20:16:13.065Z,6.40
2019-01-09T20:18:43.780Z,6.40
2019-01-09T20:21:13.495Z,6.50
2019-01-09T20:23:43.235Z,6.50
2019-01-09T20:26:13.462Z,6.50
2019-01-09T20:28:43.570Z,6.50
2019-01-09T20:31:13.205Z,6.50
2019-01-09T20:33:42.870Z,6.50
2019-01-09T20:36:14.312Z,6.50
2019-01-09T20:38:44.124Z,6.50
2019-01-09T20:41:13.864Z,6.50
2019-01-09T20:43:45.187Z,6.60
2019-01-09T20:46:14.862Z,6.60
2019-01-09T20:48:44.510Z,6.70
2019-01-09T20:51:14.217Z,6.70
2019-01-09T20:53:43.864Z,6.80
2019-01-09T20:56:13.535Z,6.80
2019-01-09T20:58:43.304Z,6.90
2019-01-09T21:01:13.279Z,6.90
2019-01-09T21:03:43.329Z,7.00
2019-01-09T21:06:13.816Z,7.00
2019-01-09T21:08:43.452Z,7.10
2019-01-09T21:11:13.220Z,7.10
2019-01-09T21:13:43.233Z,7.10
2019-01-09T21:16:13.261Z,7.20
2019-01-09T21:18:43.047Z,7.20
2019-01-09T21:21:12.850Z,7.20
2019-01-09T21:23:42.553Z,7.20
2019-01-09T21:26:12.246Z,7.30
2019-01-09T21:28:42.205Z,7.30
2019-01-09T21:31:11.881Z,7.30
2019-01-09T21:33:41.602Z,7.30
2019-01-09T21:36:12.840Z,7.40
2019-01-09T21:38:42.641Z,7.40
2019-01-09T21:41:12.351Z,7.30
2019-01-09T21:43:42.080Z,7.30
2019-01-09T21:46:11.756Z,7.30
2019-01-09T21:48:41.431Z,7.30
2019-01-09T21:51:11.585Z,7.20
2019-01-09T21:53:41.255Z,7.20
2019-01-09T21:56:12.211Z,7.20
2019-01-09T21:58:41.888Z,7.20
2019-01-09T22:01:11.626Z,7.20
2019-01-09T22:03:41.282Z,7.20
2019-01-09T22:06:11.178Z,6.90
2019-01-09T22:08:43.674Z,7.20
2019-01-09T22:11:14.563Z,7.20
2019-01-09T22:13:44.511Z,7.20
2019-01-09T22:16:14.164Z,7.20
2019-01-09T22:18:43.815Z,7.20
2019-01-09T22:21:13.491Z,7.20
2019-01-09T22:23:43.265Z,7.20
2019-01-09T22:26:12.903Z,7.20
2019-01-09T22:28:42.587Z,7.10
2019-01-09T22:31:13.818Z,7.10
2019-01-09T22:33:43.745Z,7.10
2019-01-09T22:36:17.178Z,7.10
2019-01-09T22:38:46.906Z,7.10
2019-01-09T22:41:16.569Z,7.00
2019-01-09T22:43:46.340Z,7.00
2019-01-09T22:46:16.310Z,7.00
2019-01-09T22:48:47.264Z,7.00
2019-01-09T22:51:17.061Z,7.00
2019-01-09T22:53:46.722Z,7.00
2019-01-09T22:56:19.553Z,7.00
2019-01-09T22:58:49.294Z,7.00
2019-01-09T23:01:19.769Z,7.10
2019-01-09T23:03:51.534Z,7.10
2019-01-09T23:06:21.227Z,7.10
2019-01-09T23:08:50.965Z,7.10
2019-01-09T23:11:20.735Z,7.10
2019-01-09T23:13:50.788Z,7.10
2019-01-09T23:16:22.151Z,7.10
2019-01-09T23:18:51.938Z,7.10
2019-01-09T23:21:21.653Z,7.10
2019-01-09T23:23:51.303Z,7.20
2019-01-09T23:26:22.184Z,7.20
2019-01-09T23:28:51.887Z,7.20
2019-01-09T23:31:21.679Z,7.20
2019-01-09T23:33:51.338Z,7.30
2019-01-09T23:36:21.028Z,7.20
2019-01-09T23:38:50.710Z,7.20
2019-01-09T23:41:20.357Z,7.20
2019-01-09T23:43:50.525Z,7.20
2019-01-09T23:46:20.194Z,7.20
2019-01-09T23:48:49.889Z,7.20
2019-01-09T23:51:24.615Z,7.30
2019-01-09T23:53:54.289Z,7.30
2019-01-09T23:56:23.946Z,7.30
2019-01-09T23:58:53.642Z,7.30
